x

Isle Of Shoals, Nh (iosn3) Weather Station

3:00pm - Mon 23rd Oct 2017 All times are EDT. -4 hours from GMT.

  • Wind
    5mph, 6mph gusts
  • Air Temp 55°f
  • Sea Pressure 1024.9mb
  • Isle Of Shoals, Nh
  • Isle Of Shoals, Nh

More Historic Weather Station data

Upgrade to MSW Pro to gain access to the past 30 days of data for over 8000 Wavebouys and Weather Stations around the globe.

Join

Comparision Forecast

View Surf forecast
   
Mon 10/23 3:00pm 5 6 mph 1024.9mb 55f
2:00pm 3 3 mph 1025.6mb 55f
1:00pm 5 5 mph 1026.4mb 55f
12:00pm 5 5 mph 1027.3mb 54f
11:00am 5 6 mph 1028mb 53f
10:00am 7 8 mph 1028.6mb 54f
9:00am 5 6 mph 1029mb 55f
8:00am 7 8 mph 1028.8mb 54f
7:00am 5 6 mph 1028.1mb 54f
6:00am 2 2 mph 1028.4mb 54f
5:00am 5 6 mph 1028.8mb 54f
4:00am 1 2 mph 1028.6mb 54f
3:00am 2 3 mph 1028.7mb 54f
2:00am 1 2 mph 1029.4mb 54f
1:00am 7 8 mph 1029.4mb 54f
12:00am 5 6 mph 1029.4mb 54f
Sun 10/22 11:00pm 5 6 mph 1029.6mb 54f
10:00pm 7 7 mph 1030.1mb 54f
9:00pm 6 6 mph 1029.9mb 54f
8:00pm 10 11 mph 1029.7mb 55f
7:00pm 14 16 mph 1029.3mb 55f
6:00pm 14 16 mph 1029.3mb 56f
5:00pm 10 13 mph 1029.6mb 56f
4:00pm 14 15 mph 1029.4mb 56f
3:00pm 16 17 mph 1029.3mb 56f
2:00pm 17 18 mph 1029.5mb 56f
1:00pm 20 23 mph 1029.6mb 55f
12:00pm 17 20 mph 1029.9mb 55f
11:00am 17 20 mph 1029.8mb 55f
10:00am 14 15 mph 1029.9mb 55f
9:00am 10 11 mph 1029.7mb 54f
8:00am 13 14 mph 1029mb 55f
7:00am 7 8 mph 1028.1mb 55f
6:00am 5 6 mph 1027.5mb 56f
5:00am 7 7 mph 1027.1mb 59f
4:00am 7 7 mph 1026.8mb 59f
3:00am 7 7 mph 1026.4mb 60f
2:00am 8 8 mph 1026.2mb 62f
1:00am 5 5 mph 1026mb 62f
12:00am 8 9 mph 1026.1mb 63f
Sat 10/21 11:00pm 8 9 mph 1026mb 65f
10:00pm 9 9 mph 1025.6mb 65f
9:00pm 13 14 mph 1025.2mb 67f
8:00pm 11 13 mph 1024.9mb 67f
7:00pm 13 14 mph 1024.6mb 69f
6:00pm 11 11 mph 1024.2mb 69f
5:00pm 7 8 mph 1023.6mb 68f
4:00pm 14 14 mph 1023.4mb 73f
3:00pm 15 15 mph 1023.1mb 65f
2:00pm 14 15 mph 1023.3mb 67f
1:00pm 15 15 mph 1023.7mb 64f
12:00pm 15 15 mph 1024.4mb 62f
11:00am 9 10 mph 1024.5mb 58f
10:00am 10 11 mph 1024.6mb 56f
9:00am 8 9 mph 1024.3mb 56f
8:00am 11 13 mph 1023.6mb 58f
7:00am 8 8 mph 1023.1mb 55f
6:00am 7 7 mph 1022.9mb 55f
5:00am 11 11 mph 1022.4mb 55f
4:00am 10 11 mph 1021.7mb 57f
3:00am 10 11 mph 1021.4mb 57f
2:00am 10 10 mph 1021.2mb 58f
1:00am 9 10 mph 1020.9mb 57f
12:00am 10 10 mph 1020.3mb 59f
Fri 10/20 11:00pm 11 11 mph 1019.7mb 61f
10:00pm 5 5 mph 1019.1mb 61f
9:00pm 11 11 mph 1018mb 62f
8:00pm 20 21 mph 1016.9mb 64f
7:00pm 14 15 mph 1016.6mb 64f
6:00pm 17 18 mph 1015.5mb 65f
5:00pm 18 20 mph 1014.8mb 66f
4:00pm 24 26 mph 1014.2mb 66f
3:00pm 22 26 mph 1014.2mb 64f
2:00pm 17 20 mph 1014.3mb 63f
1:00pm 20 22 mph 1015mb 62f
12:00pm 25 28 mph 1015.4mb 62f
10:00am 24 28 mph 1016.2mb 59f
9:00am 18 20 mph 1016.3mb 57f
8:00am 17 18 mph 1015.9mb 56f
7:00am 16 17 mph 1014.9mb 57f
6:00am 18 20 mph 1014.4mb 58f
5:00am 17 18 mph 1014mb 58f
4:00am 18 21 mph 1013.6mb 59f
3:00am 17 18 mph 1013.4mb 58f
2:00am 22 24 mph 1013.4mb 59f
1:00am 23 25 mph 1013.4mb 59f
12:00am 25 28 mph 1013.6mb 60f
Thu 10/19 11:00pm 23 25 mph 1014mb 60f
10:00pm 23 24 mph 1014.3mb 60f
9:00pm 26 28 mph 1013.9mb 62f